createdAt,value
2022-10-23T00:05:40.996Z,21.10
2022-10-23T00:11:07.599Z,22.30
2022-10-23T00:16:30.537Z,22.30
2022-10-23T00:21:52.767Z,21.50
2022-10-23T00:27:14.709Z,23.70
2022-10-23T00:32:37.325Z,24.20
2022-10-23T00:37:59.147Z,24.70
2022-10-23T00:43:24.944Z,24.00
2022-10-23T00:48:46.693Z,23.10
2022-10-23T00:54:23.526Z,22.80
2022-10-23T00:59:46.137Z,21.90
2022-10-23T01:05:09.150Z,23.10
2022-10-23T01:10:46.383Z,23.60
2022-10-23T01:16:18.932Z,22.00
2022-10-23T01:21:52.982Z,23.70
2022-10-23T01:27:22.914Z,23.40
2022-10-23T01:33:01.927Z,24.10
2022-10-23T01:38:35.846Z,22.70
2022-10-23T01:44:25.861Z,25.20
2022-10-23T01:49:50.732Z,23.10
2022-10-23T01:55:13.946Z,23.30
2022-10-23T02:00:39.800Z,23.70
2022-10-23T02:06:02.928Z,21.70
2022-10-23T02:11:25.076Z,22.30
2022-10-23T02:16:51.946Z,20.70
2022-10-23T02:22:21.332Z,22.00
2022-10-23T02:27:50.682Z,24.20
2022-10-23T02:33:14.803Z,24.90
2022-10-23T02:38:42.948Z,23.70
2022-10-23T02:44:19.976Z,22.90
2022-10-23T02:50:23.790Z,22.10
2022-10-23T02:56:02.384Z,20.70
2022-10-23T03:01:54.868Z,20.90
2022-10-23T03:07:19.906Z,20.10
2022-10-23T03:12:43.006Z,21.00
2022-10-23T03:18:05.541Z,21.10
2022-10-23T03:23:28.258Z,20.40
2022-10-23T03:28:50.514Z,21.30
2022-10-23T03:34:15.120Z,19.50
2022-10-23T03:44:59.596Z,21.80
2022-10-23T03:50:21.806Z,21.20
2022-10-23T03:55:46.841Z,20.40
2022-10-23T04:01:08.891Z,22.00
2022-10-23T04:06:31.191Z,22.30
2022-10-23T04:11:55.961Z,20.70
2022-10-23T04:17:23.450Z,21.80
2022-10-23T04:22:45.760Z,19.80
2022-10-23T04:28:08.275Z,20.50
2022-10-23T04:33:33.841Z,18.40
2022-10-23T04:38:56.171Z,17.80
2022-10-23T04:44:18.419Z,20.50
2022-10-23T04:49:40.928Z,22.30
2022-10-23T04:55:12.465Z,20.10
2022-10-23T05:00:39.536Z,18.60
2022-10-23T05:06:01.473Z,17.90
2022-10-23T05:11:42.648Z,19.30
2022-10-23T05:17:30.515Z,18.50
2022-10-23T05:22:55.757Z,19.00
2022-10-23T05:28:19.945Z,20.10
2022-10-23T05:33:41.920Z,20.50
2022-10-23T05:39:05.189Z,20.30
2022-10-23T05:44:27.865Z,19.50
2022-10-23T05:50:05.432Z,21.30
2022-10-23T05:56:53.148Z,20.60
2022-10-23T06:03:04.882Z,19.60
2022-10-23T06:13:54.102Z,19.20
2022-10-23T06:19:17.462Z,20.30
2022-10-23T06:24:39.820Z,20.20
2022-10-23T06:30:08.099Z,22.20
2022-10-23T06:35:30.314Z,22.40
2022-10-23T06:41:01.939Z,23.10
2022-10-23T06:46:33.055Z,23.60
2022-10-23T06:52:18.476Z,25.40
2022-10-23T06:57:51.298Z,23.90
2022-10-23T07:03:13.325Z,23.10
2022-10-23T07:08:37.844Z,25.40
2022-10-23T07:14:07.292Z,24.30
2022-10-23T07:19:29.678Z,25.50
2022-10-23T07:24:53.611Z,22.70
2022-10-23T07:30:20.220Z,21.70
2022-10-23T07:35:47.679Z,22.30
2022-10-23T07:41:15.633Z,22.70
2022-10-23T07:46:38.189Z,23.30
2022-10-23T07:52:00.309Z,20.40
2022-10-23T07:57:29.472Z,22.30
2022-10-23T08:03:01.270Z,22.20
2022-10-23T08:08:26.137Z,18.80
2022-10-23T08:13:54.513Z,20.60
2022-10-23T08:20:19.491Z,21.50
2022-10-23T08:26:03.345Z,24.60
2022-10-23T08:31:27.665Z,19.80
2022-10-23T08:37:30.370Z,18.90
2022-10-23T08:43:23.100Z,18.40
2022-10-23T08:49:19.071Z,18.80
2022-10-23T08:55:23.437Z,16.60
2022-10-23T09:01:40.288Z,19.20
2022-10-23T09:08:08.780Z,21.10
2022-10-23T09:14:16.215Z,17.90
2022-10-23T09:20:46.567Z,18.30
2022-10-23T09:34:13.481Z,13.90
2022-10-23T09:40:04.139Z,14.90
2022-10-23T09:46:46.374Z,16.10
2022-10-23T09:52:39.343Z,14.20
2022-10-23T09:58:14.752Z,12.20
2022-10-23T10:04:17.691Z,11.50
2022-10-23T10:10:41.680Z,10.40
2022-10-23T10:17:13.518Z,10.70
2022-10-23T10:23:16.039Z,11.00
2022-10-23T10:29:50.132Z,10.20
2022-10-23T10:35:57.084Z,10.10
2022-10-23T10:43:03.284Z,9.20
2022-10-23T11:37:11.994Z,10.30
2022-10-23T11:42:49.430Z,11.30
2022-10-23T11:48:13.910Z,11.40
2022-10-23T11:53:35.511Z,11.20
2022-10-23T11:58:59.740Z,10.40
2022-10-23T12:04:26.734Z,9.90
2022-10-23T12:09:57.550Z,9.60
2022-10-23T12:15:22.239Z,9.60
2022-10-23T12:21:17.088Z,9.30
2022-10-23T12:27:12.573Z,9.00
2022-10-23T12:33:21.941Z,8.70
2022-10-23T12:38:46.261Z,8.90
2022-10-23T12:44:12.892Z,7.60
2022-10-23T12:49:36.240Z,7.90
2022-10-23T12:54:59.607Z,7.40
2022-10-23T13:00:24.327Z,7.70
2022-10-23T13:05:46.462Z,6.50
2022-10-23T13:11:14.314Z,6.80
2022-10-23T13:16:36.901Z,7.30
2022-10-23T13:22:01.548Z,6.50
2022-10-23T13:27:34.086Z,7.70
2022-10-23T13:32:56.244Z,6.00
2022-10-23T13:38:18.021Z,6.80
2022-10-23T13:43:40.154Z,6.00
2022-10-23T13:49:02.072Z,6.20
2022-10-23T13:54:29.146Z,6.00
2022-10-23T13:59:51.140Z,6.00
2022-10-23T14:05:13.159Z,6.80
2022-10-23T14:10:35.206Z,6.70
2022-10-23T14:15:57.381Z,6.00
2022-10-23T14:21:21.625Z,6.50
2022-10-23T14:26:43.593Z,7.10
2022-10-23T14:32:05.580Z,6.90
2022-10-23T14:37:27.700Z,7.40
2022-10-23T14:42:49.768Z,6.60
2022-10-23T14:48:11.398Z,9.40
2022-10-23T14:53:32.955Z,10.30
2022-10-23T14:59:04.492Z,7.50
2022-10-23T15:04:26.397Z,7.10
2022-10-23T15:09:48.400Z,7.50
2022-10-23T15:15:10.342Z,11.60
2022-10-23T15:20:34.701Z,14.20
2022-10-23T15:26:02.256Z,9.30
2022-10-23T15:31:47.002Z,11.20
2022-10-23T15:42:32.452Z,9.00
2022-10-23T15:47:54.162Z,9.80
2022-10-23T15:53:16.417Z,10.90
2022-10-23T15:58:38.169Z,11.20
2022-10-23T16:04:03.251Z,12.80
2022-10-23T16:09:25.296Z,16.90
2022-10-23T16:14:46.956Z,18.90
2022-10-23T16:20:09.079Z,16.80
2022-10-23T16:25:31.088Z,20.10
2022-10-23T16:30:53.181Z,19.00
2022-10-23T16:36:16.016Z,17.70
2022-10-23T16:41:56.865Z,18.00
2022-10-23T16:47:22.289Z,19.10
2022-10-23T16:52:55.599Z,19.80
2022-10-23T16:58:21.078Z,20.30
2022-10-23T17:03:48.212Z,23.30
2022-10-23T17:09:10.206Z,19.20
2022-10-23T17:14:32.291Z,27.00
2022-10-23T17:19:59.394Z,30.10
2022-10-23T17:26:25.330Z,30.30
2022-10-23T17:33:09.347Z,28.70
2022-10-23T17:39:52.708Z,41.00
2022-10-23T17:46:35.581Z,38.00
2022-10-23T17:52:18.601Z,38.20
2022-10-23T17:57:42.902Z,38.50
2022-10-23T18:03:06.222Z,41.30
2022-10-23T18:08:28.257Z,39.30
2022-10-23T18:13:51.458Z,36.40
2022-10-23T18:19:15.122Z,37.80
2022-10-23T18:24:38.348Z,36.30
2022-10-23T18:30:00.545Z,45.20
2022-10-23T18:35:22.282Z,40.90
2022-10-23T18:40:44.408Z,48.40
2022-10-23T18:46:09.551Z,42.80
2022-10-23T18:51:35.908Z,41.20
2022-10-23T18:56:58.035Z,47.70
2022-10-23T19:02:20.291Z,47.90
2022-10-23T19:07:46.428Z,45.40
2022-10-23T19:13:08.643Z,50.30
2022-10-23T19:18:36.121Z,45.40
2022-10-23T19:24:01.994Z,40.00
2022-10-23T19:29:26.849Z,41.60
2022-10-23T19:34:48.724Z,48.90
2022-10-23T19:40:15.422Z,48.10
2022-10-23T19:45:48.336Z,54.20
2022-10-23T19:51:13.064Z,40.00
2022-10-23T19:56:39.489Z,37.50
2022-10-23T20:02:02.059Z,39.10
2022-10-23T20:07:24.568Z,46.00
2022-10-23T20:12:56.436Z,42.40
2022-10-23T20:18:26.117Z,41.50
2022-10-23T20:23:48.639Z,43.80
2022-10-23T20:29:11.137Z,41.40
2022-10-23T20:34:33.133Z,43.70
2022-10-23T20:39:55.511Z,99.30
2022-10-23T20:45:17.481Z,46.80
2022-10-23T20:50:39.553Z,42.70
2022-10-23T20:56:05.810Z,46.80
2022-10-23T21:01:29.149Z,39.80
2022-10-23T21:07:10.381Z,39.00
2022-10-23T21:12:33.404Z,39.00
2022-10-23T21:17:56.881Z,31.80
2022-10-23T21:23:22.261Z,38.10
2022-10-23T21:29:00.874Z,40.70
2022-10-23T21:34:33.740Z,44.00
2022-10-23T21:39:55.681Z,36.20
2022-10-23T21:45:17.440Z,38.20
2022-10-23T21:50:39.444Z,40.20
2022-10-23T21:56:05.521Z,40.00
2022-10-23T22:01:27.886Z,35.80
2022-10-23T22:06:50.186Z,34.90
2022-10-23T22:12:12.338Z,36.50
2022-10-23T22:17:34.488Z,39.80
2022-10-23T22:22:56.405Z,34.70
2022-10-23T22:28:18.597Z,39.10
2022-10-23T22:33:41.075Z,32.20
2022-10-23T22:39:04.987Z,31.90
2022-10-23T22:44:27.020Z,35.10
2022-10-23T22:49:48.685Z,36.10
2022-10-23T22:55:10.687Z,33.10
2022-10-23T23:00:32.336Z,33.30
2022-10-23T23:05:54.106Z,35.00
2022-10-23T23:11:19.530Z,33.10
2022-10-23T23:16:42.203Z,30.40
2022-10-23T23:22:04.971Z,33.70
2022-10-23T23:27:27.480Z,34.60
2022-10-23T23:32:50.989Z,35.40
2022-10-23T23:38:13.207Z,32.10
2022-10-23T23:43:35.200Z,32.40
2022-10-23T23:48:56.950Z,30.00
2022-10-23T23:54:18.721Z,31.20
2022-10-23T23:59:42.165Z,30.70
